sensor_id;sensor_type;location;lat;lon;timestamp;temperature;humidity
5128;DHT22;2582;48.770;9.190;2022-09-17T00:00:17;12.50;99.90
5128;DHT22;2582;48.770;9.190;2022-09-17T00:02:43;12.40;99.90
5128;DHT22;2582;48.770;9.190;2022-09-17T00:05:11;12.50;99.90
5128;DHT22;2582;48.770;9.190;2022-09-17T00:07:37;12.40;99.90
5128;DHT22;2582;48.770;9.190;2022-09-17T00:10:03;12.40;99.90
5128;DHT22;2582;48.770;9.190;2022-09-17T00:12:30;12.50;99.90
5128;DHT22;2582;48.770;9.190;2022-09-17T00:14:56;12.50;99.90
5128;DHT22;2582;48.770;9.190;2022-09-17T00:17:21;12.50;99.90
5128;DHT22;2582;48.770;9.190;2022-09-17T00:19:47;12.50;99.90
5128;DHT22;2582;48.770;9.190;2022-09-17T00:22:14;12.60;99.90
5128;DHT22;2582;48.770;9.190;2022-09-17T00:24:40;12.50;99.90
5128;DHT22;2582;48.770;9.190;2022-09-17T00:27:05;12.30;99.90
5128;DHT22;2582;48.770;9.190;2022-09-17T00:29:31;12.50;99.90
5128;DHT22;2582;48.770;9.190;2022-09-17T00:31:57;12.50;99.90
5128;DHT22;2582;48.770;9.190;2022-09-17T00:34:22;12.40;99.90
5128;DHT22;2582;48.770;9.190;2022-09-17T00:36:48;12.60;99.90
5128;DHT22;2582;48.770;9.190;2022-09-17T00:39:13;12.50;99.90
5128;DHT22;2582;48.770;9.190;2022-09-17T00:41:41;12.20;99.90
5128;DHT22;2582;48.770;9.190;2022-09-17T00:47:03;12.10;99.90
5128;DHT22;2582;48.770;9.190;2022-09-17T00:49:29;12.20;99.90
5128;DHT22;2582;48.770;9.190;2022-09-17T00:52:10;12.20;99.90
5128;DHT22;2582;48.770;9.190;2022-09-17T00:54:39;12.20;99.90
5128;DHT22;2582;48.770;9.190;2022-09-17T00:57:05;12.30;99.90
5128;DHT22;2582;48.770;9.190;2022-09-17T00:59:31;12.30;99.90
5128;DHT22;2582;48.770;9.190;2022-09-17T01:01:57;12.30;99.90
5128;DHT22;2582;48.770;9.190;2022-09-17T01:04:25;12.20;99.90
5128;DHT22;2582;48.770;9.190;2022-09-17T01:23:20;11.80;99.90
5128;DHT22;2582;48.770;9.190;2022-09-17T01:31:41;11.80;99.90
5128;DHT22;2582;48.770;9.190;2022-09-17T01:34:26;11.90;99.90
5128;DHT22;2582;48.770;9.190;2022-09-17T01:45:01;11.80;99.90
5128;DHT22;2582;48.770;9.190;2022-09-17T01:47:43;11.70;99.90
5128;DHT22;2582;48.770;9.190;2022-09-17T01:50:15;11.70;99.90
5128;DHT22;2582;48.770;9.190;2022-09-17T01:52:44;11.60;99.90
5128;DHT22;2582;48.770;9.190;2022-09-17T01:55:13;11.70;99.90
5128;DHT22;2582;48.770;9.190;2022-09-17T02:00:17;11.70;99.90
5128;DHT22;2582;48.770;9.190;2022-09-17T02:02:51;11.70;99.90
5128;DHT22;2582;48.770;9.190;2022-09-17T02:05:21;11.70;99.90
5128;DHT22;2582;48.770;9.190;2022-09-17T02:08:07;11.70;99.90
5128;DHT22;2582;48.770;9.190;2022-09-17T02:10:47;11.90;99.90
5128;DHT22;2582;48.770;9.190;2022-09-17T02:13:21;11.80;99.90
5128;DHT22;2582;48.770;9.190;2022-09-17T02:15:57;11.90;99.90
5128;DHT22;2582;48.770;9.190;2022-09-17T02:21:23;12.00;99.90
5128;DHT22;2582;48.770;9.190;2022-09-17T02:24:03;11.90;99.90
5128;DHT22;2582;48.770;9.190;2022-09-17T02:26:31;11.80;99.90
5128;DHT22;2582;48.770;9.190;2022-09-17T02:29:08;11.80;99.90
5128;DHT22;2582;48.770;9.190;2022-09-17T02:31:36;11.90;99.90
5128;DHT22;2582;48.770;9.190;2022-09-17T02:34:03;11.90;99.90
5128;DHT22;2582;48.770;9.190;2022-09-17T02:36:30;11.80;99.90
5128;DHT22;2582;48.770;9.190;2022-09-17T02:39:00;12.00;99.90
5128;DHT22;2582;48.770;9.190;2022-09-17T02:44:30;12.00;99.90
5128;DHT22;2582;48.770;9.190;2022-09-17T02:50:12;12.00;99.90
5128;DHT22;2582;48.770;9.190;2022-09-17T02:58:11;12.10;99.90
5128;DHT22;2582;48.770;9.190;2022-09-17T03:00:39;12.10;99.90
5128;DHT22;2582;48.770;9.190;2022-09-17T03:03:08;11.90;99.90
5128;DHT22;2582;48.770;9.190;2022-09-17T03:05:36;11.80;99.90
5128;DHT22;2582;48.770;9.190;2022-09-17T03:08:07;11.80;99.90
5128;DHT22;2582;48.770;9.190;2022-09-17T03:10:33;11.80;99.90
5128;DHT22;2582;48.770;9.190;2022-09-17T03:12:59;11.70;99.90
5128;DHT22;2582;48.770;9.190;2022-09-17T03:15:25;11.50;99.90
5128;DHT22;2582;48.770;9.190;2022-09-17T03:17:51;11.60;99.90
5128;DHT22;2582;48.770;9.190;2022-09-17T03:20:16;11.60;99.90
5128;DHT22;2582;48.770;9.190;2022-09-17T03:22:42;11.50;99.90
5128;DHT22;2582;48.770;9.190;2022-09-17T03:25:08;11.60;99.90
5128;DHT22;2582;48.770;9.190;2022-09-17T03:27:34;11.50;99.90
5128;DHT22;2582;48.770;9.190;2022-09-17T03:29:59;11.50;99.90
5128;DHT22;2582;48.770;9.190;2022-09-17T03:32:25;11.40;99.90
5128;DHT22;2582;48.770;9.190;2022-09-17T03:34:51;11.50;99.90
5128;DHT22;2582;48.770;9.190;2022-09-17T03:37:18;11.50;99.90
5128;DHT22;2582;48.770;9.190;2022-09-17T03:39:43;11.40;99.90
5128;DHT22;2582;48.770;9.190;2022-09-17T03:42:09;11.50;99.90
5128;DHT22;2582;48.770;9.190;2022-09-17T03:44:34;11.80;99.90
5128;DHT22;2582;48.770;9.190;2022-09-17T03:47:00;11.90;99.90
5128;DHT22;2582;48.770;9.190;2022-09-17T03:49:25;11.90;99.90
5128;DHT22;2582;48.770;9.190;2022-09-17T03:51:51;11.90;99.90
5128;DHT22;2582;48.770;9.190;2022-09-17T03:54:16;11.90;99.90
5128;DHT22;2582;48.770;9.190;2022-09-17T03:56:42;11.80;99.90
5128;DHT22;2582;48.770;9.190;2022-09-17T03:59:08;11.80;99.90
5128;DHT22;2582;48.770;9.190;2022-09-17T04:01:33;11.50;99.90
5128;DHT22;2582;48.770;9.190;2022-09-17T04:04:01;11.40;99.90
5128;DHT22;2582;48.770;9.190;2022-09-17T04:06:26;11.40;99.90
5128;DHT22;2582;48.770;9.190;2022-09-17T04:08:52;11.30;99.90
5128;DHT22;2582;48.770;9.190;2022-09-17T04:11:18;11.40;99.90
5128;DHT22;2582;48.770;9.190;2022-09-17T04:13:43;11.50;99.90
5128;DHT22;2582;48.770;9.190;2022-09-17T04:16:09;11.60;99.90
5128;DHT22;2582;48.770;9.190;2022-09-17T04:18:35;11.60;99.90
5128;DHT22;2582;48.770;9.190;2022-09-17T04:21:01;11.40;99.90
5128;DHT22;2582;48.770;9.190;2022-09-17T04:23:26;11.20;99.90
5128;DHT22;2582;48.770;9.190;2022-09-17T04:25:52;11.10;99.90
5128;DHT22;2582;48.770;9.190;2022-09-17T04:28:18;11.20;99.90
5128;DHT22;2582;48.770;9.190;2022-09-17T04:30:43;11.10;99.90
5128;DHT22;2582;48.770;9.190;2022-09-17T04:33:09;11.00;99.90
5128;DHT22;2582;48.770;9.190;2022-09-17T04:35:35;11.20;99.90
5128;DHT22;2582;48.770;9.190;2022-09-17T04:38:00;11.00;99.90
5128;DHT22;2582;48.770;9.190;2022-09-17T04:40:26;11.10;99.90
5128;DHT22;2582;48.770;9.190;2022-09-17T04:42:53;11.10;99.90
5128;DHT22;2582;48.770;9.190;2022-09-17T04:45:19;11.10;99.90
5128;DHT22;2582;48.770;9.190;2022-09-17T04:47:45;11.10;99.90
5128;DHT22;2582;48.770;9.190;2022-09-17T04:50:10;11.10;99.90
5128;DHT22;2582;48.770;9.190;2022-09-17T04:52:36;11.10;99.90
5128;DHT22;2582;48.770;9.190;2022-09-17T04:55:01;11.10;99.90
5128;DHT22;2582;48.770;9.190;2022-09-17T04:57:27;11.20;99.90
5128;DHT22;2582;48.770;9.190;2022-09-17T04:59:53;11.40;99.90
5128;DHT22;2582;48.770;9.190;2022-09-17T05:02:18;11.20;99.90
5128;DHT22;2582;48.770;9.190;2022-09-17T05:04:44;11.20;99.90
5128;DHT22;2582;48.770;9.190;2022-09-17T05:07:09;11.20;99.90
5128;DHT22;2582;48.770;9.190;2022-09-17T05:09:35;11.20;99.90
5128;DHT22;2582;48.770;9.190;2022-09-17T05:12:01;11.30;99.90
5128;DHT22;2582;48.770;9.190;2022-09-17T05:14:26;11.20;99.90
5128;DHT22;2582;48.770;9.190;2022-09-17T05:16:52;11.20;99.90
5128;DHT22;2582;48.770;9.190;2022-09-17T05:19:17;11.20;99.90
5128;DHT22;2582;48.770;9.190;2022-09-17T05:21:43;11.20;99.90
5128;DHT22;2582;48.770;9.190;2022-09-17T05:24:08;11.30;99.90
5128;DHT22;2582;48.770;9.190;2022-09-17T05:26:34;11.40;99.90
5128;DHT22;2582;48.770;9.190;2022-09-17T05:28:59;11.30;99.90
5128;DHT22;2582;48.770;9.190;2022-09-17T05:31:25;11.30;99.90
5128;DHT22;2582;48.770;9.190;2022-09-17T05:33:51;11.30;99.90
5128;DHT22;2582;48.770;9.190;2022-09-17T05:36:16;11.40;99.90
5128;DHT22;2582;48.770;9.190;2022-09-17T05:38:42;11.30;99.90
5128;DHT22;2582;48.770;9.190;2022-09-17T05:41:07;11.40;99.90
5128;DHT22;2582;48.770;9.190;2022-09-17T05:43:33;11.20;99.90
5128;DHT22;2582;48.770;9.190;2022-09-17T05:46:03;11.30;99.90
5128;DHT22;2582;48.770;9.190;2022-09-17T05:48:29;11.40;99.90
5128;DHT22;2582;48.770;9.190;2022-09-17T05:50:55;11.30;99.90
5128;DHT22;2582;48.770;9.190;2022-09-17T05:53:21;11.20;99.90
5128;DHT22;2582;48.770;9.190;2022-09-17T05:55:46;11.20;99.90
5128;DHT22;2582;48.770;9.190;2022-09-17T05:58:14;11.20;99.90
5128;DHT22;2582;48.770;9.190;2022-09-17T06:00:41;11.20;99.90
5128;DHT22;2582;48.770;9.190;2022-09-17T06:03:10;11.20;99.90
5128;DHT22;2582;48.770;9.190;2022-09-17T06:05:36;11.20;99.90
5128;DHT22;2582;48.770;9.190;2022-09-17T06:08:02;11.20;99.90
5128;DHT22;2582;48.770;9.190;2022-09-17T06:10:28;11.30;99.90
5128;DHT22;2582;48.770;9.190;2022-09-17T06:12:58;11.20;99.90
5128;DHT22;2582;48.770;9.190;2022-09-17T06:15:24;11.40;99.90
5128;DHT22;2582;48.770;9.190;2022-09-17T06:17:50;11.50;99.90
5128;DHT22;2582;48.770;9.190;2022-09-17T06:20:17;11.60;99.90
5128;DHT22;2582;48.770;9.190;2022-09-17T06:22:43;11.60;99.90
5128;DHT22;2582;48.770;9.190;2022-09-17T06:25:08;11.80;99.90
5128;DHT22;2582;48.770;9.190;2022-09-17T06:27:34;11.70;99.90
5128;DHT22;2582;48.770;9.190;2022-09-17T06:30:00;11.60;99.90
5128;DHT22;2582;48.770;9.190;2022-09-17T06:32:27;11.50;99.90
5128;DHT22;2582;48.770;9.190;2022-09-17T06:34:53;11.70;99.90
5128;DHT22;2582;48.770;9.190;2022-09-17T06:37:24;11.60;99.90
5128;DHT22;2582;48.770;9.190;2022-09-17T06:39:51;11.50;99.90
5128;DHT22;2582;48.770;9.190;2022-09-17T06:42:17;11.60;99.90
5128;DHT22;2582;48.770;9.190;2022-09-17T06:44:42;11.70;99.90
5128;DHT22;2582;48.770;9.190;2022-09-17T06:47:08;11.80;99.90
5128;DHT22;2582;48.770;9.190;2022-09-17T06:49:33;11.90;99.90
5128;DHT22;2582;48.770;9.190;2022-09-17T06:51:59;11.90;99.90
5128;DHT22;2582;48.770;9.190;2022-09-17T06:54:24;12.10;99.90
5128;DHT22;2582;48.770;9.190;2022-09-17T06:56:50;12.10;99.90
5128;DHT22;2582;48.770;9.190;2022-09-17T06:59:16;12.20;99.90
5128;DHT22;2582;48.770;9.190;2022-09-17T07:01:42;12.20;99.90
5128;DHT22;2582;48.770;9.190;2022-09-17T07:04:08;12.20;99.90
5128;DHT22;2582;48.770;9.190;2022-09-17T07:06:33;12.30;99.90
5128;DHT22;2582;48.770;9.190;2022-09-17T07:08:59;12.20;99.90
5128;DHT22;2582;48.770;9.190;2022-09-17T07:11:24;12.10;99.90
5128;DHT22;2582;48.770;9.190;2022-09-17T07:13:50;11.80;99.90
5128;DHT22;2582;48.770;9.190;2022-09-17T07:16:15;11.80;99.90
5128;DHT22;2582;48.770;9.190;2022-09-17T07:18:41;11.80;99.90
5128;DHT22;2582;48.770;9.190;2022-09-17T07:21:08;11.80;99.90
5128;DHT22;2582;48.770;9.190;2022-09-17T07:23:35;11.70;99.90
5128;DHT22;2582;48.770;9.190;2022-09-17T07:26:06;11.60;99.90
5128;DHT22;2582;48.770;9.190;2022-09-17T07:28:32;11.50;99.90
5128;DHT22;2582;48.770;9.190;2022-09-17T07:31:02;11.30;99.90
5128;DHT22;2582;48.770;9.190;2022-09-17T07:33:29;11.30;99.90
5128;DHT22;2582;48.770;9.190;2022-09-17T07:35:56;11.40;99.90
5128;DHT22;2582;48.770;9.190;2022-09-17T07:38:22;11.30;99.90
5128;DHT22;2582;48.770;9.190;2022-09-17T07:41:05;11.30;99.90
5128;DHT22;2582;48.770;9.190;2022-09-17T07:43:33;11.40;99.90
5128;DHT22;2582;48.770;9.190;2022-09-17T07:46:01;11.40;99.90
5128;DHT22;2582;48.770;9.190;2022-09-17T07:48:27;11.30;99.90
5128;DHT22;2582;48.770;9.190;2022-09-17T07:50:53;11.50;99.90
5128;DHT22;2582;48.770;9.190;2022-09-17T07:53:19;11.30;99.90
5128;DHT22;2582;48.770;9.190;2022-09-17T07:55:54;11.40;99.90
5128;DHT22;2582;48.770;9.190;2022-09-17T07:58:21;11.50;99.90
5128;DHT22;2582;48.770;9.190;2022-09-17T08:00:47;11.60;99.90
5128;DHT22;2582;48.770;9.190;2022-09-17T08:03:13;11.60;99.90
5128;DHT22;2582;48.770;9.190;2022-09-17T08:05:38;11.40;99.90
5128;DHT22;2582;48.770;9.190;2022-09-17T08:08:04;11.40;99.90
5128;DHT22;2582;48.770;9.190;2022-09-17T08:10:30;11.70;99.90
5128;DHT22;2582;48.770;9.190;2022-09-17T08:12:56;11.80;99.90
5128;DHT22;2582;48.770;9.190;2022-09-17T08:15:23;12.00;99.90
5128;DHT22;2582;48.770;9.190;2022-09-17T08:17:50;11.90;99.90
5128;DHT22;2582;48.770;9.190;2022-09-17T08:20:16;11.90;99.90
5128;DHT22;2582;48.770;9.190;2022-09-17T08:22:42;12.10;99.90
5128;DHT22;2582;48.770;9.190;2022-09-17T08:25:09;11.90;99.90
5128;DHT22;2582;48.770;9.190;2022-09-17T08:27:35;11.90;99.90
5128;DHT22;2582;48.770;9.190;2022-09-17T08:30:03;11.90;99.90
5128;DHT22;2582;48.770;9.190;2022-09-17T08:32:29;12.10;99.90
5128;DHT22;2582;48.770;9.190;2022-09-17T08:34:55;12.20;99.90
5128;DHT22;2582;48.770;9.190;2022-09-17T08:37:20;12.40;99.90
5128;DHT22;2582;48.770;9.190;2022-09-17T08:39:46;12.50;99.90
5128;DHT22;2582;48.770;9.190;2022-09-17T08:42:29;12.70;99.90
5128;DHT22;2582;48.770;9.190;2022-09-17T08:44:58;12.40;99.90
5128;DHT22;2582;48.770;9.190;2022-09-17T08:47:25;12.50;99.90
5128;DHT22;2582;48.770;9.190;2022-09-17T08:49:56;12.70;99.90
5128;DHT22;2582;48.770;9.190;2022-09-17T08:56:00;12.80;99.90
5128;DHT22;2582;48.770;9.190;2022-09-17T09:00:54;13.00;99.90
5128;DHT22;2582;48.770;9.190;2022-09-17T09:06:01;13.40;99.90
5128;DHT22;2582;48.770;9.190;2022-09-17T09:11:17;13.60;99.90
5128;DHT22;2582;48.770;9.190;2022-09-17T09:13:56;13.60;99.90
5128;DHT22;2582;48.770;9.190;2022-09-17T09:16:30;13.90;99.90
5128;DHT22;2582;48.770;9.190;2022-09-17T09:19:04;13.80;99.90
5128;DHT22;2582;48.770;9.190;2022-09-17T09:24:40;13.30;99.90
5128;DHT22;2582;48.770;9.190;2022-09-17T09:27:17;13.60;99.90
5128;DHT22;2582;48.770;9.190;2022-09-17T09:30:07;13.70;99.90
5128;DHT22;2582;48.770;9.190;2022-09-17T09:35:32;13.70;99.90
5128;DHT22;2582;48.770;9.190;2022-09-17T09:38:11;13.60;99.90
5128;DHT22;2582;48.770;9.190;2022-09-17T09:40:56;13.70;99.90
5128;DHT22;2582;48.770;9.190;2022-09-17T09:52:20;13.60;99.90
5128;DHT22;2582;48.770;9.190;2022-09-17T09:57:43;13.70;99.90
5128;DHT22;2582;48.770;9.190;2022-09-17T10:00:30;13.70;99.90
5128;DHT22;2582;48.770;9.190;2022-09-17T10:03:28;13.40;99.90
5128;DHT22;2582;48.770;9.190;2022-09-17T10:06:07;13.30;99.90
5128;DHT22;2582;48.770;9.190;2022-09-17T10:08:36;13.50;99.90
5128;DHT22;2582;48.770;9.190;2022-09-17T10:11:19;13.60;99.90
5128;DHT22;2582;48.770;9.190;2022-09-17T10:13:45;13.80;99.90
5128;DHT22;2582;48.770;9.190;2022-09-17T10:18:42;14.10;99.90
5128;DHT22;2582;48.770;9.190;2022-09-17T10:23:46;14.70;99.90
5128;DHT22;2582;48.770;9.190;2022-09-17T10:26:39;14.70;99.90
5128;DHT22;2582;48.770;9.190;2022-09-17T10:29:11;14.60;99.90
5128;DHT22;2582;48.770;9.190;2022-09-17T10:31:58;14.40;99.90
5128;DHT22;2582;48.770;9.190;2022-09-17T10:34:27;14.40;99.90
5128;DHT22;2582;48.770;9.190;2022-09-17T10:36:53;14.40;99.90
5128;DHT22;2582;48.770;9.190;2022-09-17T10:39:35;14.70;99.90
5128;DHT22;2582;48.770;9.190;2022-09-17T10:42:14;15.10;99.90
5128;DHT22;2582;48.770;9.190;2022-09-17T10:44:53;15.70;99.90
5128;DHT22;2582;48.770;9.190;2022-09-17T10:47:30;15.40;99.90
5128;DHT22;2582;48.770;9.190;2022-09-17T10:50:04;15.70;99.90
5128;DHT22;2582;48.770;9.190;2022-09-17T10:52:34;16.20;99.90
5128;DHT22;2582;48.770;9.190;2022-09-17T11:00:37;15.50;99.90
5128;DHT22;2582;48.770;9.190;2022-09-17T11:06:13;17.00;99.90
5128;DHT22;2582;48.770;9.190;2022-09-17T11:08:49;17.10;99.90
5128;DHT22;2582;48.770;9.190;2022-09-17T11:17:18;19.20;98.60
5128;DHT22;2582;48.770;9.190;2022-09-17T11:20:02;19.50;97.60
5128;DHT22;2582;48.770;9.190;2022-09-17T11:22:33;19.90;97.60
5128;DHT22;2582;48.770;9.190;2022-09-17T11:34:25;17.10;99.00
5128;DHT22;2582;48.770;9.190;2022-09-17T11:42:11;17.70;98.50
5128;DHT22;2582;48.770;9.190;2022-09-17T11:47:23;18.10;97.50
5128;DHT22;2582;48.770;9.190;2022-09-17T11:50:23;18.10;97.30
5128;DHT22;2582;48.770;9.190;2022-09-17T11:53:23;18.00;98.00
5128;DHT22;2582;48.770;9.190;2022-09-17T11:58:33;18.60;96.80
5128;DHT22;2582;48.770;9.190;2022-09-17T12:01:05;18.10;96.60
5128;DHT22;2582;48.770;9.190;2022-09-17T12:03:58;17.70;97.20
5128;DHT22;2582;48.770;9.190;2022-09-17T12:06:42;17.30;98.00
5128;DHT22;2582;48.770;9.190;2022-09-17T12:09:16;17.10;98.20
5128;DHT22;2582;48.770;9.190;2022-09-17T12:14:43;17.00;98.10
5128;DHT22;2582;48.770;9.190;2022-09-17T12:17:18;16.70;99.30
5128;DHT22;2582;48.770;9.190;2022-09-17T12:19:56;16.40;99.90
5128;DHT22;2582;48.770;9.190;2022-09-17T12:22:35;16.10;99.90
5128;DHT22;2582;48.770;9.190;2022-09-17T12:25:02;15.70;99.90
5128;DHT22;2582;48.770;9.190;2022-09-17T12:30:22;15.30;99.90
5128;DHT22;2582;48.770;9.190;2022-09-17T12:33:16;15.40;99.90
5128;DHT22;2582;48.770;9.190;2022-09-17T12:36:04;15.10;99.90
5128;DHT22;2582;48.770;9.190;2022-09-17T12:38:47;15.20;99.90
5128;DHT22;2582;48.770;9.190;2022-09-17T12:44:33;16.50;99.90
5128;DHT22;2582;48.770;9.190;2022-09-17T12:47:13;16.70;99.90
5128;DHT22;2582;48.770;9.190;2022-09-17T12:50:15;16.60;99.90
5128;DHT22;2582;48.770;9.190;2022-09-17T12:52:53;15.50;99.90
5128;DHT22;2582;48.770;9.190;2022-09-17T13:00:49;14.40;99.90
5128;DHT22;2582;48.770;9.190;2022-09-17T13:08:37;14.20;99.90
5128;DHT22;2582;48.770;9.190;2022-09-17T13:13:59;13.70;99.90
5128;DHT22;2582;48.770;9.190;2022-09-17T13:16:45;13.40;99.90
5128;DHT22;2582;48.770;9.190;2022-09-17T13:19:26;13.20;99.90
5128;DHT22;2582;48.770;9.190;2022-09-17T13:22:00;13.20;99.90
5128;DHT22;2582;48.770;9.190;2022-09-17T13:24:29;13.40;99.90
5128;DHT22;2582;48.770;9.190;2022-09-17T13:26:56;13.50;99.90
5128;DHT22;2582;48.770;9.190;2022-09-17T13:32:47;13.70;99.90
5128;DHT22;2582;48.770;9.190;2022-09-17T13:40:33;14.00;99.90
5128;DHT22;2582;48.770;9.190;2022-09-17T13:43:14;14.30;99.90
5128;DHT22;2582;48.770;9.190;2022-09-17T13:48:27;15.50;99.90
5128;DHT22;2582;48.770;9.190;2022-09-17T13:50:54;16.00;99.90
5128;DHT22;2582;48.770;9.190;2022-09-17T13:53:22;17.00;99.90
5128;DHT22;2582;48.770;9.190;2022-09-17T13:55:56;17.90;99.90
5128;DHT22;2582;48.770;9.190;2022-09-17T13:58:34;18.50;99.90
5128;DHT22;2582;48.770;9.190;2022-09-17T14:01:06;18.20;99.90
5128;DHT22;2582;48.770;9.190;2022-09-17T14:19:19;19.80;99.90
5128;DHT22;2582;48.770;9.190;2022-09-17T14:24:23;19.90;99.90
5128;DHT22;2582;48.770;9.190;2022-09-17T14:35:16;18.60;99.90
5128;DHT22;2582;48.770;9.190;2022-09-17T14:37:47;19.50;99.90
5128;DHT22;2582;48.770;9.190;2022-09-17T14:40:17;21.00;99.30
5128;DHT22;2582;48.770;9.190;2022-09-17T14:42:45;21.20;98.10
5128;DHT22;2582;48.770;9.190;2022-09-17T14:45:25;21.50;97.80
5128;DHT22;2582;48.770;9.190;2022-09-17T14:48:26;20.20;98.50
5128;DHT22;2582;48.770;9.190;2022-09-17T14:53:49;22.00;96.50
5128;DHT22;2582;48.770;9.190;2022-09-17T14:56:35;21.30;96.50
5128;DHT22;2582;48.770;9.190;2022-09-17T14:59:04;21.20;97.20
5128;DHT22;2582;48.770;9.190;2022-09-17T15:01:29;20.80;98.30
5128;DHT22;2582;48.770;9.190;2022-09-17T15:06:43;20.50;98.10
5128;DHT22;2582;48.770;9.190;2022-09-17T15:09:22;20.80;97.80
5128;DHT22;2582;48.770;9.190;2022-09-17T15:11:51;20.70;97.40
5128;DHT22;2582;48.770;9.190;2022-09-17T15:14:26;20.30;97.80
5128;DHT22;2582;48.770;9.190;2022-09-17T15:16:54;19.10;98.90
5128;DHT22;2582;48.770;9.190;2022-09-17T15:19:30;18.30;99.80
5128;DHT22;2582;48.770;9.190;2022-09-17T15:21:59;17.50;99.90
5128;DHT22;2582;48.770;9.190;2022-09-17T15:30:17;16.60;99.90
5128;DHT22;2582;48.770;9.190;2022-09-17T15:32:55;16.40;99.90
5128;DHT22;2582;48.770;9.190;2022-09-17T15:35:24;16.20;99.90
5128;DHT22;2582;48.770;9.190;2022-09-17T15:37:54;16.20;99.90
5128;DHT22;2582;48.770;9.190;2022-09-17T15:40:36;15.90;99.90
5128;DHT22;2582;48.770;9.190;2022-09-17T15:45:32;16.10;99.90
5128;DHT22;2582;48.770;9.190;2022-09-17T15:48:02;16.10;99.90
5128;DHT22;2582;48.770;9.190;2022-09-17T15:50:30;16.00;99.90
5128;DHT22;2582;48.770;9.190;2022-09-17T15:53:28;15.90;99.90
5128;DHT22;2582;48.770;9.190;2022-09-17T15:56:07;15.60;99.90
5128;DHT22;2582;48.770;9.190;2022-09-17T16:11:54;15.40;99.90
5128;DHT22;2582;48.770;9.190;2022-09-17T16:14:19;15.00;99.90
5128;DHT22;2582;48.770;9.190;2022-09-17T16:16:45;15.00;99.90
5128;DHT22;2582;48.770;9.190;2022-09-17T16:19:12;15.10;99.90
5128;DHT22;2582;48.770;9.190;2022-09-17T16:21:37;15.00;99.90
5128;DHT22;2582;48.770;9.190;2022-09-17T16:24:03;14.90;99.90
5128;DHT22;2582;48.770;9.190;2022-09-17T16:26:31;14.90;99.90
5128;DHT22;2582;48.770;9.190;2022-09-17T16:29:02;15.00;99.90
5128;DHT22;2582;48.770;9.190;2022-09-17T16:31:29;15.10;99.90
5128;DHT22;2582;48.770;9.190;2022-09-17T16:33:54;15.30;99.90
5128;DHT22;2582;48.770;9.190;2022-09-17T16:36:20;15.40;99.90
5128;DHT22;2582;48.770;9.190;2022-09-17T16:38:46;15.40;99.90
5128;DHT22;2582;48.770;9.190;2022-09-17T16:41:12;15.40;99.90
5128;DHT22;2582;48.770;9.190;2022-09-17T16:43:37;15.40;99.90
5128;DHT22;2582;48.770;9.190;2022-09-17T16:46:06;15.40;99.90
5128;DHT22;2582;48.770;9.190;2022-09-17T16:48:33;15.30;99.90
5128;DHT22;2582;48.770;9.190;2022-09-17T16:50:59;15.40;99.90
5128;DHT22;2582;48.770;9.190;2022-09-17T16:53:26;15.20;99.90
5128;DHT22;2582;48.770;9.190;2022-09-17T16:55:52;15.10;99.90
5128;DHT22;2582;48.770;9.190;2022-09-17T16:58:17;15.10;99.90
5128;DHT22;2582;48.770;9.190;2022-09-17T17:00:44;15.10;99.90
5128;DHT22;2582;48.770;9.190;2022-09-17T17:03:13;15.10;99.90
5128;DHT22;2582;48.770;9.190;2022-09-17T17:05:39;14.90;99.90
5128;DHT22;2582;48.770;9.190;2022-09-17T17:08:06;14.90;99.90
5128;DHT22;2582;48.770;9.190;2022-09-17T17:10:32;14.80;99.90
5128;DHT22;2582;48.770;9.190;2022-09-17T17:12:58;14.70;99.90
5128;DHT22;2582;48.770;9.190;2022-09-17T17:15:23;14.50;99.90
5128;DHT22;2582;48.770;9.190;2022-09-17T17:17:49;14.30;99.90
5128;DHT22;2582;48.770;9.190;2022-09-17T17:20:15;14.00;99.90
5128;DHT22;2582;48.770;9.190;2022-09-17T17:22:42;13.70;99.90
5128;DHT22;2582;48.770;9.190;2022-09-17T17:25:08;13.50;99.90
5128;DHT22;2582;48.770;9.190;2022-09-17T17:27:35;13.40;99.90
5128;DHT22;2582;48.770;9.190;2022-09-17T17:30:03;13.60;99.90
5128;DHT22;2582;48.770;9.190;2022-09-17T17:32:31;13.70;99.90
5128;DHT22;2582;48.770;9.190;2022-09-17T17:34:57;13.70;99.90
5128;DHT22;2582;48.770;9.190;2022-09-17T17:37:22;13.70;99.90
5128;DHT22;2582;48.770;9.190;2022-09-17T17:39:48;13.80;99.90
5128;DHT22;2582;48.770;9.190;2022-09-17T17:42:14;14.00;99.90
5128;DHT22;2582;48.770;9.190;2022-09-17T17:44:40;13.70;99.90
5128;DHT22;2582;48.770;9.190;2022-09-17T17:47:05;13.70;99.90
5128;DHT22;2582;48.770;9.190;2022-09-17T17:49:32;13.60;99.90
5128;DHT22;2582;48.770;9.190;2022-09-17T17:51:58;13.50;99.90
5128;DHT22;2582;48.770;9.190;2022-09-17T17:54:23;13.30;99.90
5128;DHT22;2582;48.770;9.190;2022-09-17T17:56:49;13.30;99.90
5128;DHT22;2582;48.770;9.190;2022-09-17T17:59:15;13.10;99.90
5128;DHT22;2582;48.770;9.190;2022-09-17T18:01:41;13.10;99.90
5128;DHT22;2582;48.770;9.190;2022-09-17T18:04:07;13.00;99.90
5128;DHT22;2582;48.770;9.190;2022-09-17T18:06:33;13.00;99.90
5128;DHT22;2582;48.770;9.190;2022-09-17T18:08:59;12.90;99.90
5128;DHT22;2582;48.770;9.190;2022-09-17T18:11:25;12.70;99.90
5128;DHT22;2582;48.770;9.190;2022-09-17T18:13:53;12.60;99.90
5128;DHT22;2582;48.770;9.190;2022-09-17T18:16:19;12.50;99.90
5128;DHT22;2582;48.770;9.190;2022-09-17T18:18:46;12.50;99.90
5128;DHT22;2582;48.770;9.190;2022-09-17T18:21:14;12.60;99.90
5128;DHT22;2582;48.770;9.190;2022-09-17T18:23:41;12.80;99.90
5128;DHT22;2582;48.770;9.190;2022-09-17T18:26:11;12.70;99.90
5128;DHT22;2582;48.770;9.190;2022-09-17T18:28:38;12.60;99.90
5128;DHT22;2582;48.770;9.190;2022-09-17T18:31:18;12.50;99.90
5128;DHT22;2582;48.770;9.190;2022-09-17T18:33:44;12.60;99.90
5128;DHT22;2582;48.770;9.190;2022-09-17T18:36:10;12.60;99.90
5128;DHT22;2582;48.770;9.190;2022-09-17T18:38:36;12.70;99.90
5128;DHT22;2582;48.770;9.190;2022-09-17T18:41:10;12.60;99.90
5128;DHT22;2582;48.770;9.190;2022-09-17T18:43:36;12.60;99.90
5128;DHT22;2582;48.770;9.190;2022-09-17T18:46:02;12.50;99.90
5128;DHT22;2582;48.770;9.190;2022-09-17T18:48:29;12.60;99.90
5128;DHT22;2582;48.770;9.190;2022-09-17T18:53:21;12.40;99.90
5128;DHT22;2582;48.770;9.190;2022-09-17T18:55:46;12.40;99.90
5128;DHT22;2582;48.770;9.190;2022-09-17T18:58:12;12.60;99.90
5128;DHT22;2582;48.770;9.190;2022-09-17T19:00:39;12.60;99.90
5128;DHT22;2582;48.770;9.190;2022-09-17T19:03:05;12.60;99.90
5128;DHT22;2582;48.770;9.190;2022-09-17T19:05:30;12.60;99.90
5128;DHT22;2582;48.770;9.190;2022-09-17T19:07:56;12.50;99.90
5128;DHT22;2582;48.770;9.190;2022-09-17T19:10:21;12.40;99.90
5128;DHT22;2582;48.770;9.190;2022-09-17T19:12:47;12.10;99.90
5128;DHT22;2582;48.770;9.190;2022-09-17T19:15:14;11.90;99.90
5128;DHT22;2582;48.770;9.190;2022-09-17T19:17:40;11.80;99.90
5128;DHT22;2582;48.770;9.190;2022-09-17T19:20:05;11.40;99.90
5128;DHT22;2582;48.770;9.190;2022-09-17T19:22:31;11.10;99.90
5128;DHT22;2582;48.770;9.190;2022-09-17T19:24:57;10.90;99.90
5128;DHT22;2582;48.770;9.190;2022-09-17T19:27:23;10.80;99.90
5128;DHT22;2582;48.770;9.190;2022-09-17T19:29:49;10.80;99.90
5128;DHT22;2582;48.770;9.190;2022-09-17T19:32:14;10.80;99.90
5128;DHT22;2582;48.770;9.190;2022-09-17T19:34:40;10.80;99.90
5128;DHT22;2582;48.770;9.190;2022-09-17T19:37:07;10.70;99.90
5128;DHT22;2582;48.770;9.190;2022-09-17T19:39:32;10.80;99.90
5128;DHT22;2582;48.770;9.190;2022-09-17T19:41:59;10.90;99.90
5128;DHT22;2582;48.770;9.190;2022-09-17T19:44:25;10.90;99.90